Time,TemperatureF,DewpointF,PressureIn,WindDirection,WindDirectionDegrees,WindSpeedMPH,WindSpeedGustMPH,Humidity,HourlyPrecipIn,Conditions,Clouds,dailyrainin,SoftwareType,DateUTC
2013-05-08 00:05:00,58.3,45.8,0.00,North,0,0.0,0.0,63,0.00,,,0.08,VWS V13.01,2013-05-08 04:05:00,
2013-05-08 00:10:00,58.3,45.8,0.00,North,0,0.0,0.0,63,0.00,,,0.08,VWS V13.01,2013-05-08 04:10:00,
2013-05-08 00:15:00,58.3,45.8,0.00,North,0,0.0,0.0,63,0.00,,,0.08,VWS V13.01,2013-05-08 04:15:00,
2013-05-08 00:20:00,58.1,45.6,0.00,North,0,0.0,0.0,63,0.00,,,0.08,VWS V13.01,2013-05-08 04:20:00,
2013-05-08 00:25:00,58.1,45.6,0.00,North,0,0.0,0.0,63,0.00,,,0.08,VWS V13.01,2013-05-08 04:25:00,
2013-05-08 00:30:00,58.1,45.6,0.00,North,0,0.0,0.0,63,0.00,,,0.08,VWS V13.01,2013-05-08 04:30:00,
2013-05-08 00:35:00,57.9,45.4,0.00,North,0,0.0,0.0,63,0.00,,,0.08,VWS V13.01,2013-05-08 04:35:00,
2013-05-08 00:40:00,57.9,45.4,0.00,North,0,0.0,0.0,63,0.00,,,0.08,VWS V13.01,2013-05-08 04:40:00,
2013-05-08 00:45:00,57.7,45.2,0.00,North,0,0.0,0.0,63,0.00,,,0.08,VWS V13.01,2013-05-08 04:45:00,
2013-05-08 00:50:00,57.6,45.1,0.00,North,0,0.0,0.0,63,0.00,,,0.08,VWS V13.01,2013-05-08 04:50:00,
2013-05-08 00:55:00,57.4,45.3,0.00,North,0,0.0,0.0,64,0.00,,,0.08,VWS V13.01,2013-05-08 04:55:00,
2013-05-08 01:00:00,57.2,45.2,0.00,North,0,0.0,0.0,64,0.00,,,0.08,VWS V13.01,2013-05-08 05:00:00,
2013-05-08 01:05:00,57.2,45.2,0.00,North,0,0.0,0.0,64,0.00,,,0.00,VWS V13.01,2013-05-08 05:05:00,
2013-05-08 01:10:00,57.2,45.2,0.00,North,0,0.0,0.0,64,0.00,,,0.00,VWS V13.01,2013-05-08 05:10:00,
2013-05-08 01:15:00,57.2,45.2,0.00,North,0,0.0,0.0,64,0.00,,,0.00,VWS V13.01,2013-05-08 05:15:00,
2013-05-08 01:20:00,57.0,45.4,0.00,North,0,0.0,0.0,65,0.00,,,0.00,VWS V13.01,2013-05-08 05:20:00,
2013-05-08 01:25:00,57.0,45.4,0.00,North,0,0.0,0.0,65,0.00,,,0.00,VWS V13.01,2013-05-08 05:25:00,
2013-05-08 01:30:00,57.0,45.4,0.00,North,0,0.0,0.0,65,0.00,,,0.00,VWS V13.01,2013-05-08 05:30:00,
2013-05-08 01:35:00,57.2,45.6,0.00,North,0,0.0,0.0,65,0.00,,,0.00,VWS V13.01,2013-05-08 05:35:00,
2013-05-08 01:40:00,57.0,45.4,0.00,North,0,0.0,0.0,65,0.00,,,0.00,VWS V13.01,2013-05-08 05:40:00,
2013-05-08 01:45:00,56.8,45.2,0.00,North,0,0.0,0.0,65,0.00,,,0.00,VWS V13.01,2013-05-08 05:45:00,
2013-05-08 01:50:00,56.7,45.0,0.00,North,0,0.0,0.0,65,0.00,,,0.00,VWS V13.01,2013-05-08 05:50:00,
2013-05-08 01:55:00,56.7,45.0,0.00,North,0,0.0,0.0,65,0.00,,,0.00,VWS V13.01,2013-05-08 05:55:00,
2013-05-08 02:00:00,56.7,45.0,0.00,North,0,0.0,0.0,65,0.00,,,0.00,VWS V13.01,2013-05-08 06:00:00,
2013-05-08 02:05:00,56.7,45.4,0.00,North,0,0.0,0.0,66,0.00,,,0.00,VWS V13.01,2013-05-08 06:05:00,
2013-05-08 02:10:00,56.7,45.4,0.00,North,0,0.0,0.0,66,0.00,,,0.00,VWS V13.01,2013-05-08 06:10:00,
2013-05-08 02:15:00,56.7,45.4,0.00,North,0,0.0,0.0,66,0.00,,,0.00,VWS V13.01,2013-05-08 06:15:00,
2013-05-08 02:20:00,56.8,45.6,0.00,North,0,0.0,0.0,66,0.00,,,0.00,VWS V13.01,2013-05-08 06:20:00,
2013-05-08 02:25:00,56.8,45.6,0.00,North,0,0.0,0.0,66,0.00,,,0.00,VWS V13.01,2013-05-08 06:25:00,
2013-05-08 02:30:00,56.8,45.6,0.00,North,0,0.0,0.0,66,0.00,,,0.00,VWS V13.01,2013-05-08 06:30:00,
2013-05-08 02:35:00,56.8,45.6,0.00,North,0,0.0,0.0,66,0.00,,,0.00,VWS V13.01,2013-05-08 06:35:00,
2013-05-08 02:40:00,57.0,45.8,0.00,North,0,0.0,0.0,66,0.00,,,0.00,VWS V13.01,2013-05-08 06:40:00,
2013-05-08 02:45:00,56.8,45.6,0.00,North,0,0.0,0.0,66,0.00,,,0.00,VWS V13.01,2013-05-08 06:45:00,
2013-05-08 02:50:00,56.8,45.6,0.00,North,0,0.0,0.0,66,0.00,,,0.00,VWS V13.01,2013-05-08 06:50:00,
2013-05-08 02:55:00,56.8,45.6,0.00,North,0,0.0,0.0,66,0.00,,,0.00,VWS V13.01,2013-05-08 06:55:00,
2013-05-08 03:00:00,56.7,45.4,0.00,North,0,0.0,0.0,66,0.00,,,0.00,VWS V13.01,2013-05-08 07:00:00,
2013-05-08 03:05:00,56.7,45.4,0.00,North,0,0.0,0.0,66,0.00,,,0.00,VWS V13.01,2013-05-08 07:05:00,
2013-05-08 03:10:00,56.5,45.3,0.00,North,0,0.0,0.0,66,0.00,,,0.00,VWS V13.01,2013-05-08 07:10:00,
2013-05-08 03:15:00,56.3,45.1,0.00,North,0,0.0,0.0,66,0.00,,,0.00,VWS V13.01,2013-05-08 07:15:00,
2013-05-08 03:20:00,56.3,45.1,0.00,North,0,0.0,0.0,66,0.00,,,0.00,VWS V13.01,2013-05-08 07:20:00,
2013-05-08 03:25:00,56.3,45.1,0.00,North,0,0.0,0.0,66,0.00,,,0.00,VWS V13.01,2013-05-08 07:25:00,
2013-05-08 03:30:00,56.1,44.9,0.00,North,0,0.0,0.0,66,0.00,,,0.00,VWS V13.01,2013-05-08 07:30:00,
2013-05-08 03:35:00,55.9,44.8,0.00,North,0,0.0,0.0,66,0.00,,,0.00,VWS V13.01,2013-05-08 07:35:00,
2013-05-08 03:40:00,55.9,44.8,0.00,North,0,0.0,0.0,66,0.00,,,0.00,VWS V13.01,2013-05-08 07:40:00,
2013-05-08 03:45:00,55.9,44.8,0.00,North,0,0.0,0.0,66,0.00,,,0.00,VWS V13.01,2013-05-08 07:45:00,
2013-05-08 03:50:00,55.9,44.8,0.00,North,0,0.0,0.0,66,0.00,,,0.00,VWS V13.01,2013-05-08 07:50:00,
2013-05-08 03:55:00,55.9,44.8,0.00,North,0,0.0,0.0,66,0.00,,,0.00,VWS V13.01,2013-05-08 07:55:00,
2013-05-08 04:00:00,56.1,44.9,0.00,North,0,0.0,0.0,66,0.00,,,0.00,VWS V13.01,2013-05-08 08:00:00,
2013-05-08 04:05:00,56.3,45.1,0.00,North,0,0.0,0.0,66,0.00,,,0.00,VWS V13.01,2013-05-08 08:05:00,
2013-05-08 04:10:00,56.3,45.1,0.00,North,0,0.0,0.0,66,0.00,,,0.00,VWS V13.01,2013-05-08 08:10:00,
2013-05-08 04:15:00,56.3,45.1,0.00,North,0,0.0,0.0,66,0.00,,,0.00,VWS V13.01,2013-05-08 08:15:00,
2013-05-08 04:20:00,56.3,45.1,0.00,North,0,0.0,0.0,66,0.00,,,0.00,VWS V13.01,2013-05-08 08:20:00,
2013-05-08 04:25:00,56.1,44.9,0.00,North,0,0.0,0.0,66,0.00,,,0.00,VWS V13.01,2013-05-08 08:25:00,
2013-05-08 04:31:00,56.1,44.9,0.00,North,0,0.0,0.0,66,0.00,,,0.00,VWS V13.01,2013-05-08 08:31:00,
2013-05-08 04:36:00,56.1,44.9,0.00,North,0,0.0,0.0,66,0.00,,,0.00,VWS V13.01,2013-05-08 08:36:00,
2013-05-08 04:41:00,56.1,44.9,0.00,North,0,0.0,0.0,66,0.00,,,0.00,VWS V13.01,2013-05-08 08:41:00,
2013-05-08 04:46:00,56.1,44.9,0.00,North,0,0.0,0.0,66,0.00,,,0.00,VWS V13.01,2013-05-08 08:46:00,
2013-05-08 04:51:00,56.1,44.9,0.00,North,0,0.0,0.0,66,0.00,,,0.00,VWS V13.01,2013-05-08 08:51:00,
2013-05-08 04:56:00,56.3,45.5,0.00,North,0,0.0,0.0,67,0.00,,,0.00,VWS V13.01,2013-05-08 08:56:00,
2013-05-08 05:01:00,56.3,45.5,0.00,North,0,0.0,0.0,67,0.00,,,0.00,VWS V13.01,2013-05-08 09:01:00,
2013-05-08 05:06:00,56.3,45.5,0.00,North,0,0.0,0.0,67,0.00,,,0.00,VWS V13.01,2013-05-08 09:06:00,
2013-05-08 05:11:00,56.3,45.1,0.00,North,0,0.0,0.0,66,0.00,,,0.00,VWS V13.01,2013-05-08 09:11:00,
2013-05-08 05:16:00,56.3,45.5,0.00,North,0,0.0,0.0,67,0.00,,,0.00,VWS V13.01,2013-05-08 09:16:00,
2013-05-08 05:21:00,56.3,45.5,0.00,North,0,0.0,0.0,67,0.00,,,0.00,VWS V13.01,2013-05-08 09:21:00,
2013-05-08 05:26:00,56.3,45.5,0.00,North,0,0.0,0.0,67,0.00,,,0.00,VWS V13.01,2013-05-08 09:26:00,
2013-05-08 05:31:00,56.5,45.7,0.00,North,0,0.0,0.0,67,0.00,,,0.00,VWS V13.01,2013-05-08 09:31:00,
2013-05-08 05:36:00,56.5,45.7,0.00,North,0,0.0,0.0,67,0.00,,,0.00,VWS V13.01,2013-05-08 09:36:00,
2013-05-08 05:41:00,56.5,45.7,0.00,North,0,0.0,0.0,67,0.00,,,0.00,VWS V13.01,2013-05-08 09:41:00,
2013-05-08 05:46:00,56.5,45.7,0.00,North,0,0.0,0.0,67,0.00,,,0.00,VWS V13.01,2013-05-08 09:46:00,
2013-05-08 05:51:00,56.7,45.8,0.00,North,0,0.0,0.0,67,0.00,,,0.00,VWS V13.01,2013-05-08 09:51:00,
2013-05-08 05:56:00,56.7,45.8,0.00,North,0,0.0,0.0,67,0.00,,,0.00,VWS V13.01,2013-05-08 09:56:00,
2013-05-08 06:01:00,56.7,45.8,0.00,North,0,0.0,0.0,67,0.00,,,0.00,VWS V13.01,2013-05-08 10:01:00,
2013-05-08 06:06:00,56.7,45.8,0.00,North,0,0.0,0.0,67,0.00,,,0.00,VWS V13.01,2013-05-08 10:06:00,
2013-05-08 06:11:00,56.8,46.0,0.00,North,0,0.0,0.0,67,0.00,,,0.00,VWS V13.01,2013-05-08 10:11:00,
2013-05-08 06:16:00,56.8,46.0,0.00,North,0,0.0,0.0,67,0.00,,,0.00,VWS V13.01,2013-05-08 10:16:00,
2013-05-08 06:21:00,56.8,46.0,0.00,North,0,0.0,0.0,67,0.00,,,0.00,VWS V13.01,2013-05-08 10:21:00,
2013-05-08 06:26:00,56.8,46.0,0.00,North,0,0.0,0.0,67,0.00,,,0.00,VWS V13.01,2013-05-08 10:26:00,
2013-05-08 06:31:00,57.0,46.2,0.00,North,0,0.0,0.0,67,0.00,,,0.00,VWS V13.01,2013-05-08 10:31:00,
2013-05-08 06:36:00,57.0,46.2,0.00,North,0,0.0,0.0,67,0.00,,,0.00,VWS V13.01,2013-05-08 10:36:00,
2013-05-08 06:41:00,57.0,46.2,0.00,North,0,0.0,0.0,67,0.00,,,0.00,VWS V13.01,2013-05-08 10:41:00,
2013-05-08 06:46:00,57.0,46.2,0.00,North,0,0.0,0.0,67,0.00,,,0.00,VWS V13.01,2013-05-08 10:46:00,
2013-05-08 06:51:00,57.2,46.4,0.00,North,0,0.0,0.0,67,0.00,,,0.00,VWS V13.01,2013-05-08 10:51:00,
2013-05-08 06:56:00,57.0,46.2,0.00,North,0,0.0,0.0,67,0.00,,,0.00,VWS V13.01,2013-05-08 10:56:00,
2013-05-08 07:01:00,56.8,46.0,0.00,North,0,0.0,0.0,67,0.00,,,0.00,VWS V13.01,2013-05-08 11:01:00,
2013-05-08 07:06:00,56.8,46.0,0.00,North,0,0.0,0.0,67,0.00,,,0.00,VWS V13.01,2013-05-08 11:06:00,
2013-05-08 07:11:00,56.8,46.0,0.00,North,0,0.0,0.0,67,0.00,,,0.00,VWS V13.01,2013-05-08 11:11:00,
2013-05-08 07:16:00,56.7,45.8,0.00,North,0,0.0,0.0,67,0.00,,,0.00,VWS V13.01,2013-05-08 11:16:00,
2013-05-08 07:21:00,56.7,45.8,0.00,North,0,0.0,0.0,67,0.00,,,0.00,VWS V13.01,2013-05-08 11:21:00,
2013-05-08 07:26:00,56.7,45.8,0.00,North,0,0.0,0.0,67,0.00,,,0.00,VWS V13.01,2013-05-08 11:26:00,
2013-05-08 07:31:00,56.7,45.8,0.00,North,0,0.0,0.0,67,0.00,,,0.00,VWS V13.01,2013-05-08 11:31:00,
2013-05-08 07:36:00,56.7,45.8,0.00,North,0,0.0,0.0,67,0.00,,,0.00,VWS V13.01,2013-05-08 11:36:00,
2013-05-08 07:41:00,56.7,45.8,0.00,North,0,0.0,0.0,67,0.00,,,0.00,VWS V13.01,2013-05-08 11:41:00,
2013-05-08 07:46:00,56.7,45.8,0.00,North,0,0.0,0.0,67,0.00,,,0.00,VWS V13.01,2013-05-08 11:46:00,
2013-05-08 07:51:00,56.7,45.8,0.00,North,0,0.0,0.0,67,0.00,,,0.00,VWS V13.01,2013-05-08 11:51:00,
2013-05-08 07:56:00,56.8,46.0,0.00,North,0,0.0,0.0,67,0.00,,,0.00,VWS V13.01,2013-05-08 11:56:00,
2013-05-08 08:01:00,56.8,46.0,0.00,North,0,0.0,0.0,67,0.00,,,0.00,VWS V13.01,2013-05-08 12:01:00,
2013-05-08 08:06:00,56.8,46.0,0.00,North,0,0.0,0.0,67,0.00,,,0.00,VWS V13.01,2013-05-08 12:06:00,
2013-05-08 08:11:00,57.0,46.2,0.00,North,0,0.0,0.0,67,0.00,,,0.00,VWS V13.01,2013-05-08 12:11:00,
2013-05-08 08:16:00,56.8,46.0,0.00,North,0,0.0,0.0,67,0.00,,,0.00,VWS V13.01,2013-05-08 12:16:00,
2013-05-08 08:21:00,57.0,46.2,0.00,North,0,0.0,0.0,67,0.00,,,0.00,VWS V13.01,2013-05-08 12:21:00,
2013-05-08 08:26:00,57.0,46.2,0.00,North,0,0.0,0.0,67,0.00,,,0.00,VWS V13.01,2013-05-08 12:26:00,
2013-05-08 08:31:00,57.2,46.4,0.00,North,0,0.0,0.0,67,0.00,,,0.00,VWS V13.01,2013-05-08 12:31:00,
2013-05-08 08:36:00,57.2,46.4,0.00,North,0,0.0,0.0,67,0.00,,,0.00,VWS V13.01,2013-05-08 12:36:00,
2013-05-08 08:41:00,57.2,46.4,0.00,North,0,0.0,0.0,67,0.00,,,0.00,VWS V13.01,2013-05-08 12:41:00,
2013-05-08 08:46:00,57.4,46.5,0.00,North,0,0.0,0.0,67,0.00,,,0.00,VWS V13.01,2013-05-08 12:46:00,
2013-05-08 08:51:00,57.6,46.7,0.00,North,0,0.0,0.0,67,0.00,,,0.00,VWS V13.01,2013-05-08 12:51:00,
2013-05-08 08:56:00,57.6,46.7,0.00,North,0,0.0,0.0,67,0.00,,,0.00,VWS V13.01,2013-05-08 12:56:00,
2013-05-08 09:01:00,57.6,46.7,0.00,North,0,0.0,0.0,67,0.00,,,0.00,VWS V13.01,2013-05-08 13:01:00,
2013-05-08 09:06:00,57.7,46.9,0.00,North,0,0.0,0.0,67,0.00,,,0.00,VWS V13.01,2013-05-08 13:06:00,
2013-05-08 09:11:00,57.7,46.9,0.00,North,0,0.0,0.0,67,0.00,,,0.00,VWS V13.01,2013-05-08 13:11:00,
2013-05-08 09:16:00,57.9,47.0,0.00,North,0,0.0,0.0,67,0.00,,,0.00,VWS V13.01,2013-05-08 13:16:00,
2013-05-08 09:21:00,57.9,47.0,0.00,North,0,0.0,0.0,67,0.00,,,0.00,VWS V13.01,2013-05-08 13:21:00,
2013-05-08 09:26:00,57.9,47.0,0.00,North,0,0.0,0.0,67,0.00,,,0.00,VWS V13.01,2013-05-08 13:26:00,
2013-05-08 09:31:00,58.1,47.2,0.00,North,0,0.0,0.0,67,0.00,,,0.00,VWS V13.01,2013-05-08 13:31:00,
2013-05-08 09:36:00,58.3,47.4,0.00,North,0,0.0,0.0,67,0.00,,,0.00,VWS V13.01,2013-05-08 13:36:00,
2013-05-08 09:41:00,58.3,47.4,0.00,North,0,0.0,0.0,67,0.00,,,0.00,VWS V13.01,2013-05-08 13:41:00,
2013-05-08 09:46:00,58.5,47.6,0.00,North,0,0.0,0.0,67,0.00,,,0.00,VWS V13.01,2013-05-08 13:46:00,
2013-05-08 09:51:00,58.5,47.6,0.00,North,0,0.0,0.0,67,0.00,,,0.00,VWS V13.01,2013-05-08 13:51:00,
2013-05-08 09:56:00,58.6,47.7,0.00,North,0,0.0,0.0,67,0.00,,,0.00,VWS V13.01,2013-05-08 13:56:00,
2013-05-08 10:01:00,58.8,48.3,0.00,North,0,0.0,0.0,68,0.00,,,0.00,VWS V13.01,2013-05-08 14:01:00,
2013-05-08 10:06:00,59.2,48.2,0.00,North,0,0.0,0.0,67,0.00,,,0.00,VWS V13.01,2013-05-08 14:06:00,
2013-05-08 10:11:00,59.2,48.2,0.00,North,0,0.0,0.0,67,0.00,,,0.00,VWS V13.01,2013-05-08 14:11:00,
2013-05-08 10:16:00,59.4,48.4,0.00,North,0,0.0,0.0,67,0.00,,,0.00,VWS V13.01,2013-05-08 14:16:00,
2013-05-08 10:21:00,59.5,48.6,0.00,North,0,0.0,0.0,67,0.00,,,0.00,VWS V13.01,2013-05-08 14:21:00,
2013-05-08 10:26:00,59.7,49.2,0.00,North,0,0.0,0.0,68,0.00,,,0.00,VWS V13.01,2013-05-08 14:26:00,
2013-05-08 10:31:00,59.9,49.3,0.00,North,0,0.0,0.0,68,0.00,,,0.00,VWS V13.01,2013-05-08 14:31:00,
2013-05-08 10:36:00,60.3,49.7,0.00,North,0,0.0,0.0,68,0.00,,,0.00,VWS V13.01,2013-05-08 14:36:00,
2013-05-08 10:41:00,60.6,50.0,0.00,North,0,0.0,0.0,68,0.00,,,0.00,VWS V13.01,2013-05-08 14:41:00,
2013-05-08 10:46:00,61.0,50.0,0.00,North,0,0.0,0.0,67,0.00,,,0.00,VWS V13.01,2013-05-08 14:46:00,
2013-05-08 10:51:00,61.5,50.5,0.00,North,0,0.0,0.0,67,0.00,,,0.00,VWS V13.01,2013-05-08 14:51:00,
2013-05-08 10:56:00,61.9,50.8,0.00,North,0,0.0,0.0,67,0.00,,,0.00,VWS V13.01,2013-05-08 14:56:00,
2013-05-08 11:01:00,62.4,51.3,0.00,North,0,0.0,0.0,67,0.00,,,0.00,VWS V13.01,2013-05-08 15:01:00,
2013-05-08 11:06:00,62.6,51.5,0.00,North,0,0.0,0.0,67,0.00,,,0.00,VWS V13.01,2013-05-08 15:06:00,
2013-05-08 11:11:00,63.0,51.8,0.00,North,0,0.0,0.0,67,0.00,,,0.00,VWS V13.01,2013-05-08 15:11:00,
2013-05-08 11:16:00,63.3,52.2,0.00,North,0,0.0,0.0,67,0.00,,,0.00,VWS V13.01,2013-05-08 15:16:00,
2013-05-08 11:21:00,63.9,52.3,0.00,North,0,0.0,0.0,66,0.00,,,0.00,VWS V13.01,2013-05-08 15:21:00,
2013-05-08 11:27:00,64.6,53.0,0.00,North,0,0.0,0.0,66,0.00,,,0.00,VWS V13.01,2013-05-08 15:27:00,
2013-05-08 11:32:00,64.9,53.3,0.00,North,0,0.0,0.0,66,0.00,,,0.00,VWS V13.01,2013-05-08 15:32:00,
2013-05-08 11:37:00,64.9,52.9,0.00,North,0,0.0,0.0,65,0.00,,,0.00,VWS V13.01,2013-05-08 15:37:00,
2013-05-08 11:42:00,65.3,49.2,0.00,North,0,0.0,0.0,56,0.00,,,0.00,VWS V13.01,2013-05-08 15:42:00,
2013-05-08 11:47:00,65.8,40.9,0.00,North,0,0.0,0.0,40,0.00,,,0.00,VWS V13.01,2013-05-08 15:47:00,
2013-05-08 11:52:00,66.2,39.2,0.00,North,0,0.0,0.0,37,0.00,,,0.00,VWS V13.01,2013-05-08 15:52:00,
2013-05-08 11:57:00,66.2,37.8,0.00,North,0,0.0,0.0,35,0.00,,,0.00,VWS V13.01,2013-05-08 15:57:00,
2013-05-08 12:02:00,66.6,38.1,0.00,North,0,0.0,0.0,35,0.00,,,0.00,VWS V13.01,2013-05-08 16:02:00,
2013-05-08 12:07:00,66.7,36.8,0.00,North,0,0.0,0.0,33,0.00,,,0.00,VWS V13.01,2013-05-08 16:07:00,
2013-05-08 12:12:00,66.9,36.9,0.00,North,0,0.0,0.0,33,0.00,,,0.00,VWS V13.01,2013-05-08 16:12:00,
2013-05-08 12:17:00,67.5,37.4,0.00,North,0,0.0,0.0,33,0.00,,,0.00,VWS V13.01,2013-05-08 16:17:00,
2013-05-08 12:22:00,67.8,35.3,0.00,North,0,0.0,0.0,30,0.00,,,0.00,VWS V13.01,2013-05-08 16:22:00,
2013-05-08 12:27:00,67.8,36.1,0.00,North,0,0.0,0.0,31,0.00,,,0.00,VWS V13.01,2013-05-08 16:27:00,
2013-05-08 12:33:00,67.8,35.3,0.00,North,0,0.0,0.0,30,0.00,,,0.00,VWS V13.01,2013-05-08 16:33:00,
2013-05-08 12:38:00,67.8,34.4,0.00,North,0,0.0,0.0,29,0.00,,,0.00,VWS V13.01,2013-05-08 16:38:00,
2013-05-08 12:43:00,67.8,31.7,0.00,North,0,0.0,0.0,26,0.00,,,0.00,VWS V13.01,2013-05-08 16:43:00,
2013-05-08 12:48:00,67.6,32.5,0.00,North,0,0.0,0.0,27,0.00,,,0.00,VWS V13.01,2013-05-08 16:48:00,
2013-05-08 12:53:00,67.8,33.5,0.00,North,0,0.0,0.0,28,0.00,,,0.00,VWS V13.01,2013-05-08 16:53:00,
2013-05-08 12:58:00,68.4,33.1,0.00,North,0,0.0,0.0,27,0.00,,,0.00,VWS V13.01,2013-05-08 16:58:00,
2013-05-08 13:03:00,68.2,32.0,0.00,North,0,0.0,0.0,26,0.00,,,0.00,VWS V13.01,2013-05-08 17:03:00,
2013-05-08 13:08:00,67.3,34.0,0.00,North,0,0.0,0.0,29,0.00,,,0.00,VWS V13.01,2013-05-08 17:08:00,
2013-05-08 13:13:00,66.9,36.1,0.00,North,0,0.0,0.0,32,0.00,,,0.00,VWS V13.01,2013-05-08 17:13:00,
2013-05-08 13:18:00,66.9,36.1,0.00,North,0,0.0,0.0,32,0.00,,,0.00,VWS V13.01,2013-05-08 17:18:00,
2013-05-08 13:23:00,66.9,36.9,0.00,North,0,0.0,0.0,33,0.00,,,0.00,VWS V13.01,2013-05-08 17:23:00,
2013-05-08 13:28:00,66.6,36.6,0.00,North,0,0.0,0.0,33,0.00,,,0.00,VWS V13.01,2013-05-08 17:28:00,
2013-05-08 13:33:00,66.6,36.6,0.00,North,0,0.0,0.0,33,0.00,,,0.00,VWS V13.01,2013-05-08 17:33:00,
2013-05-08 13:38:00,66.6,36.6,0.00,North,0,0.0,0.0,33,0.00,,,0.00,VWS V13.01,2013-05-08 17:38:00,
2013-05-08 13:43:00,66.6,36.6,0.00,North,0,0.0,0.0,33,0.00,,,0.00,VWS V13.01,2013-05-08 17:43:00,
2013-05-08 13:48:00,66.6,37.3,0.00,North,0,0.0,0.0,34,0.00,,,0.00,VWS V13.01,2013-05-08 17:48:00,
2013-05-08 13:53:00,66.7,38.2,0.00,North,0,0.0,0.0,35,0.00,,,0.00,VWS V13.01,2013-05-08 17:53:00,
2013-05-08 13:58:00,67.3,38.0,0.00,North,0,0.0,0.0,34,0.00,,,0.00,VWS V13.01,2013-05-08 17:58:00,
2013-05-08 14:03:00,68.0,37.8,0.00,North,0,0.0,0.0,33,0.00,,,0.00,VWS V13.01,2013-05-08 18:03:00,
2013-05-08 14:08:00,68.4,35.8,0.00,North,0,0.0,0.0,30,0.00,,,0.00,VWS V13.01,2013-05-08 18:08:00,
2013-05-08 14:13:00,68.9,35.4,0.00,North,0,0.0,0.0,29,0.00,,,0.00,VWS V13.01,2013-05-08 18:13:00,
2013-05-08 14:18:00,69.1,36.4,0.00,North,0,0.0,0.0,30,0.00,,,0.00,VWS V13.01,2013-05-08 18:18:00,
2013-05-08 14:23:00,68.9,34.5,0.00,North,0,0.0,0.0,28,0.00,,,0.00,VWS V13.01,2013-05-08 18:23:00,
2013-05-08 14:28:00,68.5,32.3,0.00,North,0,0.0,0.0,26,0.00,,,0.00,VWS V13.01,2013-05-08 18:28:00,
2013-05-08 14:33:00,68.2,33.9,0.00,North,0,0.0,0.0,28,0.00,,,0.00,VWS V13.01,2013-05-08 18:33:00,
2013-05-08 14:38:00,68.2,34.7,0.00,North,0,0.0,0.0,29,0.00,,,0.00,VWS V13.01,2013-05-08 18:38:00,
2013-05-08 14:43:00,67.8,35.3,0.00,North,0,0.0,0.0,30,0.00,,,0.00,VWS V13.01,2013-05-08 18:43:00,
2013-05-08 14:48:00,67.6,37.5,0.00,North,0,0.0,0.0,33,0.00,,,0.00,VWS V13.01,2013-05-08 18:48:00,
2013-05-08 14:53:00,67.5,37.4,0.00,North,0,0.0,0.0,33,0.00,,,0.00,VWS V13.01,2013-05-08 18:53:00,
2013-05-08 14:58:00,67.6,37.5,0.00,North,0,0.0,0.0,33,0.00,,,0.00,VWS V13.01,2013-05-08 18:58:00,
2013-05-08 15:03:00,67.8,38.5,0.00,North,0,0.0,0.0,34,0.00,,,0.00,VWS V13.01,2013-05-08 19:03:00,
2013-05-08 15:08:00,68.2,38.0,0.00,North,0,0.0,0.0,33,0.00,,,0.00,VWS V13.01,2013-05-08 19:08:00,
2013-05-08 15:13:00,68.5,36.7,0.00,North,0,0.0,0.0,31,0.00,,,0.00,VWS V13.01,2013-05-08 19:13:00,
2013-05-08 15:18:00,68.7,38.5,0.00,North,0,0.0,0.0,33,0.00,,,0.00,VWS V13.01,2013-05-08 19:18:00,
2013-05-08 15:23:00,69.3,38.2,0.00,North,0,0.0,0.0,32,0.00,,,0.00,VWS V13.01,2013-05-08 19:23:00,
2013-05-08 15:28:00,69.1,36.4,0.00,North,0,0.0,0.0,30,0.00,,,0.00,VWS V13.01,2013-05-08 19:28:00,
2013-05-08 15:33:00,68.9,37.8,0.00,North,0,0.0,0.0,32,0.00,,,0.00,VWS V13.01,2013-05-08 19:33:00,
2013-05-08 15:38:00,68.4,37.4,0.00,North,0,0.0,0.0,32,0.00,,,0.00,VWS V13.01,2013-05-08 19:38:00,
2013-05-08 15:43:00,67.6,37.5,0.00,North,0,0.0,0.0,33,0.00,,,0.00,VWS V13.01,2013-05-08 19:43:00,
2013-05-08 15:48:00,67.3,38.7,0.00,North,0,0.0,0.0,35,0.00,,,0.00,VWS V13.01,2013-05-08 19:48:00,
2013-05-08 15:53:00,66.9,39.8,0.00,North,0,0.0,0.0,37,0.00,,,0.00,VWS V13.01,2013-05-08 19:53:00,
2013-05-08 15:58:00,66.6,40.2,0.00,North,0,0.0,0.0,38,0.00,,,0.00,VWS V13.01,2013-05-08 19:58:00,
2013-05-08 16:03:00,66.6,40.9,0.00,North,0,0.0,0.0,39,0.00,,,0.00,VWS V13.01,2013-05-08 20:03:00,
2013-05-08 16:08:00,66.6,40.9,0.00,North,0,0.0,0.0,39,0.00,,,0.00,VWS V13.01,2013-05-08 20:08:00,
2013-05-08 16:13:00,66.6,41.5,0.00,North,0,0.0,0.0,40,0.00,,,0.00,VWS V13.01,2013-05-08 20:13:00,
2013-05-08 16:18:00,66.6,42.8,0.00,North,0,0.0,0.0,42,0.00,,,0.00,VWS V13.01,2013-05-08 20:18:00,
2013-05-08 16:23:00,66.6,42.8,0.00,North,0,0.0,0.0,42,0.00,,,0.00,VWS V13.01,2013-05-08 20:23:00,
2013-05-08 16:28:00,67.3,44.0,0.00,North,0,0.0,0.0,43,0.00,,,0.00,VWS V13.01,2013-05-08 20:28:00,
2013-05-08 16:33:00,67.8,45.1,0.00,North,0,0.0,0.0,44,0.00,,,0.00,VWS V13.01,2013-05-08 20:33:00,
2013-05-08 16:38:00,68.0,44.1,0.00,North,0,0.0,0.0,42,0.00,,,0.00,VWS V13.01,2013-05-08 20:38:00,
2013-05-08 16:43:00,68.4,44.4,0.00,North,0,0.0,0.0,42,0.00,,,0.00,VWS V13.01,2013-05-08 20:43:00,
2013-05-08 16:48:00,68.9,39.4,0.00,North,0,0.0,0.0,34,0.00,,,0.00,VWS V13.01,2013-05-08 20:48:00,
2013-05-08 16:53:00,69.4,35.8,0.00,North,0,0.0,0.0,29,0.00,,,0.00,VWS V13.01,2013-05-08 20:53:00,
2013-05-08 16:58:00,69.4,34.0,0.00,North,0,0.0,0.0,27,0.00,,,0.00,VWS V13.01,2013-05-08 20:58:00,
2013-05-08 17:03:00,69.4,34.0,0.00,North,0,0.0,0.0,27,0.00,,,0.00,VWS V13.01,2013-05-08 21:03:00,
2013-05-08 17:08:00,69.1,33.7,0.00,North,0,0.0,0.0,27,0.00,,,0.00,VWS V13.01,2013-05-08 21:08:00,
2013-05-08 17:13:00,68.9,35.4,0.00,North,0,0.0,0.0,29,0.00,,,0.00,VWS V13.01,2013-05-08 21:13:00,
2013-05-08 17:18:00,68.9,36.2,0.00,North,0,0.0,0.0,30,0.00,,,0.00,VWS V13.01,2013-05-08 21:18:00,
2013-05-08 17:23:00,68.9,37.0,0.00,North,0,0.0,0.0,31,0.00,,,0.00,VWS V13.01,2013-05-08 21:23:00,
2013-05-08 17:28:00,67.6,31.6,0.00,North,0,0.0,0.0,26,0.00,,,0.00,VWS V13.01,2013-05-08 21:28:00,
2013-05-08 17:33:00,66.0,31.1,0.00,North,0,0.0,0.0,27,0.00,,,0.00,VWS V13.01,2013-05-08 21:33:00,
2013-05-08 17:38:00,65.3,32.3,0.00,North,0,0.0,0.0,29,0.00,,,0.00,VWS V13.01,2013-05-08 21:38:00,
2013-05-08 17:43:00,64.8,32.6,0.00,North,0,0.0,0.0,30,0.00,,,0.00,VWS V13.01,2013-05-08 21:43:00,
2013-05-08 17:48:00,64.4,32.3,0.00,North,0,0.0,0.0,30,0.00,,,0.00,VWS V13.01,2013-05-08 21:48:00,
2013-05-08 17:53:00,63.9,34.2,0.00,North,0,0.0,0.0,33,0.00,,,0.00,VWS V13.01,2013-05-08 21:53:00,
2013-05-08 17:58:00,63.5,35.4,0.00,North,0,0.0,0.0,35,0.00,,,0.00,VWS V13.01,2013-05-08 21:58:00,
2013-05-08 18:03:00,63.0,35.6,0.00,North,0,0.0,0.0,36,0.00,,,0.04,VWS V13.01,2013-05-08 22:03:00,
2013-05-08 18:08:00,62.2,35.0,0.00,North,0,0.0,0.0,36,0.16,,,0.16,VWS V13.01,2013-05-08 22:08:00,
2013-05-08 18:13:00,61.5,37.6,0.00,North,0,0.0,0.0,41,0.16,,,0.20,VWS V13.01,2013-05-08 22:13:00,
2013-05-08 18:18:00,60.8,38.8,0.00,North,0,0.0,0.0,44,0.20,,,0.20,VWS V13.01,2013-05-08 22:18:00,
2013-05-08 18:23:00,60.6,39.8,0.00,North,0,0.0,0.0,46,0.20,,,0.20,VWS V13.01,2013-05-08 22:23:00,
2013-05-08 18:28:00,60.4,41.7,0.00,North,0,0.0,0.0,50,0.24,,,0.24,VWS V13.01,2013-05-08 22:28:00,
2013-05-08 18:33:00,60.3,42.6,0.00,North,0,0.0,0.0,52,0.24,,,0.24,VWS V13.01,2013-05-08 22:33:00,
2013-05-08 18:38:00,60.3,42.6,0.00,North,0,0.0,0.0,52,0.24,,,0.24,VWS V13.01,2013-05-08 22:38:00,
2013-05-08 18:43:00,60.4,42.8,0.00,North,0,0.0,0.0,52,0.24,,,0.24,VWS V13.01,2013-05-08 22:43:00,
2013-05-08 18:48:00,60.4,43.2,0.00,North,0,0.0,0.0,53,0.24,,,0.24,VWS V13.01,2013-05-08 22:48:00,
2013-05-08 18:54:00,60.4,42.8,0.00,North,0,0.0,0.0,52,0.24,,,0.24,VWS V13.01,2013-05-08 22:54:00,
2013-05-08 18:59:00,60.4,43.2,0.00,North,0,0.0,0.0,53,0.24,,,0.24,VWS V13.01,2013-05-08 22:59:00,
2013-05-08 19:04:00,60.6,43.9,0.00,North,0,0.0,0.0,54,0.24,,,0.24,VWS V13.01,2013-05-08 23:04:00,
2013-05-08 19:09:00,60.6,43.4,0.00,North,0,0.0,0.0,53,0.16,,,0.24,VWS V13.01,2013-05-08 23:09:00,
2013-05-08 19:14:00,61.0,44.2,0.00,North,0,0.0,0.0,54,0.08,,,0.24,VWS V13.01,2013-05-08 23:14:00,
2013-05-08 19:19:00,61.3,44.6,0.00,North,0,0.0,0.0,54,0.04,,,0.24,VWS V13.01,2013-05-08 23:19:00,
2013-05-08 19:24:00,61.2,44.4,0.00,North,0,0.0,0.0,54,0.04,,,0.24,VWS V13.01,2013-05-08 23:24:00,
2013-05-08 19:29:00,61.3,44.6,0.00,North,0,0.0,0.0,54,0.04,,,0.24,VWS V13.01,2013-05-08 23:29:00,
2013-05-08 19:34:00,61.2,44.4,0.00,North,0,0.0,0.0,54,0.00,,,0.24,VWS V13.01,2013-05-08 23:34:00,
2013-05-08 19:39:00,61.0,44.2,0.00,North,0,0.0,0.0,54,0.00,,,0.24,VWS V13.01,2013-05-08 23:39:00,
2013-05-08 19:44:00,60.8,44.1,0.00,North,0,0.0,0.0,54,0.00,,,0.24,VWS V13.01,2013-05-08 23:44:00,
2013-05-08 19:49:00,60.6,44.4,0.00,North,0,0.0,0.0,55,0.00,,,0.24,VWS V13.01,2013-05-08 23:49:00,
2013-05-08 19:54:00,60.6,44.4,0.00,North,0,0.0,0.0,55,0.00,,,0.24,VWS V13.01,2013-05-08 23:54:00,
2013-05-08 19:59:00,60.6,44.4,0.00,North,0,0.0,0.0,55,0.00,,,0.24,VWS V13.01,2013-05-08 23:59:00,
2013-05-08 20:04:00,60.6,44.4,0.00,North,0,0.0,0.0,55,0.00,,,0.24,VWS V13.01,2013-05-09 00:04:00,
2013-05-08 20:09:00,60.6,44.4,0.00,North,0,0.0,0.0,55,0.00,,,0.24,VWS V13.01,2013-05-09 00:09:00,
2013-05-08 20:14:00,60.6,44.4,0.00,North,0,0.0,0.0,55,0.00,,,0.24,VWS V13.01,2013-05-09 00:14:00,
2013-05-08 20:19:00,60.6,44.8,0.00,North,0,0.0,0.0,56,0.00,,,0.24,VWS V13.01,2013-05-09 00:19:00,
2013-05-08 20:24:00,60.6,44.8,0.00,North,0,0.0,0.0,56,0.00,,,0.24,VWS V13.01,2013-05-09 00:24:00,
2013-05-08 20:29:00,60.4,44.2,0.00,North,0,0.0,0.0,55,0.00,,,0.24,VWS V13.01,2013-05-09 00:29:00,
2013-05-08 20:34:00,60.3,44.5,0.00,North,0,0.0,0.0,56,0.00,,,0.24,VWS V13.01,2013-05-09 00:34:00,
2013-05-08 20:39:00,60.3,44.5,0.00,North,0,0.0,0.0,56,0.00,,,0.24,VWS V13.01,2013-05-09 00:39:00,
2013-05-08 20:44:00,60.1,44.3,0.00,North,0,0.0,0.0,56,0.00,,,0.24,VWS V13.01,2013-05-09 00:44:00,
2013-05-08 20:49:00,59.9,44.2,0.00,North,0,0.0,0.0,56,0.00,,,0.24,VWS V13.01,2013-05-09 00:49:00,
2013-05-08 20:54:00,59.9,44.7,0.00,North,0,0.0,0.0,57,0.00,,,0.24,VWS V13.01,2013-05-09 00:54:00,
2013-05-08 20:59:00,59.9,44.7,0.00,North,0,0.0,0.0,57,0.00,,,0.24,VWS V13.01,2013-05-09 00:59:00,
2013-05-08 21:04:00,59.7,44.5,0.00,North,0,0.0,0.0,57,0.00,,,0.24,VWS V13.01,2013-05-09 01:04:00,
2013-05-08 21:09:00,59.7,44.9,0.00,North,0,0.0,0.0,58,0.00,,,0.24,VWS V13.01,2013-05-09 01:09:00,
2013-05-08 21:14:00,59.7,44.9,0.00,North,0,0.0,0.0,58,0.00,,,0.24,VWS V13.01,2013-05-09 01:14:00,
2013-05-08 21:19:00,59.5,44.8,0.00,North,0,0.0,0.0,58,0.00,,,0.24,VWS V13.01,2013-05-09 01:19:00,
2013-05-08 21:24:00,59.4,45.0,0.00,North,0,0.0,0.0,59,0.00,,,0.24,VWS V13.01,2013-05-09 01:24:00,
2013-05-08 21:29:00,59.4,45.0,0.00,North,0,0.0,0.0,59,0.00,,,0.24,VWS V13.01,2013-05-09 01:29:00,
2013-05-08 21:34:00,59.4,45.0,0.00,North,0,0.0,0.0,59,0.00,,,0.24,VWS V13.01,2013-05-09 01:34:00,
2013-05-08 21:39:00,59.2,44.9,0.00,North,0,0.0,0.0,59,0.00,,,0.24,VWS V13.01,2013-05-09 01:39:00,
2013-05-08 21:44:00,59.2,45.3,0.00,North,0,0.0,0.0,60,0.00,,,0.24,VWS V13.01,2013-05-09 01:44:00,
2013-05-08 21:49:00,59.2,45.3,0.00,North,0,0.0,0.0,60,0.00,,,0.24,VWS V13.01,2013-05-09 01:49:00,
2013-05-08 21:54:00,59.2,45.3,0.00,North,0,0.0,0.0,60,0.00,,,0.24,VWS V13.01,2013-05-09 01:54:00,
2013-05-08 21:59:00,59.2,45.3,0.00,North,0,0.0,0.0,60,0.00,,,0.24,VWS V13.01,2013-05-09 01:59:00,
2013-05-08 22:04:00,59.2,45.3,0.00,North,0,0.0,0.0,60,0.00,,,0.24,VWS V13.01,2013-05-09 02:04:00,
2013-05-08 22:09:00,59.2,45.3,0.00,North,0,0.0,0.0,60,0.00,,,0.24,VWS V13.01,2013-05-09 02:09:00,
2013-05-08 22:14:00,59.4,45.9,0.00,North,0,0.0,0.0,61,0.00,,,0.24,VWS V13.01,2013-05-09 02:14:00,
2013-05-08 22:19:00,59.4,45.9,0.00,North,0,0.0,0.0,61,0.00,,,0.24,VWS V13.01,2013-05-09 02:19:00,
2013-05-08 22:24:00,59.2,45.8,0.00,North,0,0.0,0.0,61,0.00,,,0.24,VWS V13.01,2013-05-09 02:24:00,
2013-05-08 22:29:00,59.2,45.8,0.00,North,0,0.0,0.0,61,0.00,,,0.24,VWS V13.01,2013-05-09 02:29:00,
2013-05-08 22:34:00,59.2,45.8,0.00,North,0,0.0,0.0,61,0.00,,,0.24,VWS V13.01,2013-05-09 02:34:00,
2013-05-08 22:39:00,59.2,45.8,0.00,North,0,0.0,0.0,61,0.00,,,0.24,VWS V13.01,2013-05-09 02:39:00,
2013-05-08 22:44:00,59.2,46.2,0.00,North,0,0.0,0.0,62,0.00,,,0.24,VWS V13.01,2013-05-09 02:44:00,
2013-05-08 22:49:00,59.2,46.2,0.00,North,0,0.0,0.0,62,0.00,,,0.24,VWS V13.01,2013-05-09 02:49:00,
2013-05-08 22:54:00,59.2,46.6,0.00,North,0,0.0,0.0,63,0.00,,,0.24,VWS V13.01,2013-05-09 02:54:00,
2013-05-08 22:59:00,59.2,46.6,0.00,North,0,0.0,0.0,63,0.00,,,0.24,VWS V13.01,2013-05-09 02:59:00,
2013-05-08 23:00:00,57.7,45.7,0.00,North,0,0.0,0.0,64,0.00,,,0.24,VWS V13.01,2013-05-09 03:00:00,
2013-05-08 23:01:00,57.7,45.7,0.00,North,0,0.0,0.0,64,0.00,,,0.24,VWS V13.01,2013-05-09 03:01:00,
2013-05-08 23:02:00,57.6,45.5,0.00,North,0,0.0,0.0,64,0.00,,,0.24,VWS V13.01,2013-05-09 03:02:00,
2013-05-08 23:03:00,57.6,45.5,0.00,North,0,0.0,0.0,64,0.00,,,0.24,VWS V13.01,2013-05-09 03:03:00,
2013-05-08 23:04:00,59.2,46.6,0.00,North,0,0.0,0.0,63,0.00,,,0.24,VWS V13.01,2013-05-09 03:04:00,
2013-05-08 23:05:00,57.6,45.5,0.00,North,0,0.0,0.0,64,0.00,,,0.24,VWS V13.01,2013-05-09 03:05:00,
2013-05-08 23:06:00,57.6,45.5,0.00,North,0,0.0,0.0,64,0.00,,,0.24,VWS V13.01,2013-05-09 03:06:00,
2013-05-08 23:07:00,57.4,45.3,0.00,North,0,0.0,0.0,64,0.00,,,0.24,VWS V13.01,2013-05-09 03:07:00,
2013-05-08 23:09:00,59.0,46.4,0.00,North,0,0.0,0.0,63,0.00,,,0.24,VWS V13.01,2013-05-09 03:09:00,
2013-05-08 23:14:00,59.0,46.4,0.00,North,0,0.0,0.0,63,0.00,,,0.24,VWS V13.01,2013-05-09 03:14:00,
2013-05-08 23:19:00,58.8,46.7,0.00,North,0,0.0,0.0,64,0.00,,,0.24,VWS V13.01,2013-05-09 03:19:00,
2013-05-08 23:24:00,58.6,46.5,0.00,North,0,0.0,0.0,64,0.00,,,0.24,VWS V13.01,2013-05-09 03:24:00,
2013-05-08 23:29:00,58.5,46.3,0.00,North,0,0.0,0.0,64,0.00,,,0.24,VWS V13.01,2013-05-09 03:29:00,
2013-05-08 23:34:00,58.5,46.3,0.00,North,0,0.0,0.0,64,0.00,,,0.24,VWS V13.01,2013-05-09 03:34:00,
2013-05-08 23:39:00,58.5,46.3,0.00,North,0,0.0,0.0,64,0.00,,,0.24,VWS V13.01,2013-05-09 03:39:00,
2013-05-08 23:44:00,58.3,46.2,0.00,North,0,0.0,0.0,64,0.00,,,0.24,VWS V13.01,2013-05-09 03:44:00,
2013-05-08 23:49:00,58.1,46.0,0.00,North,0,0.0,0.0,64,0.00,,,0.24,VWS V13.01,2013-05-09 03:49:00,
2013-05-08 23:54:00,58.1,46.0,0.00,North,0,0.0,0.0,64,0.00,,,0.24,VWS V13.01,2013-05-09 03:54:00,
2013-05-08 23:59:00,57.9,45.8,0.00,North,0,0.0,0.0,64,0.00,,,0.24,VWS V13.01,2013-05-09 03:59:00,